sensor_id;sensor_type;location;lat;lon;timestamp;P1;durP1;ratioP1;P2;durP2;ratioP2
52708;SDS011;38606;52.986;6.980;2023-03-01T00:01:24;29.50;;;17.75;;
52708;SDS011;38606;52.986;6.980;2023-03-01T00:03:52;26.60;;;16.13;;
52708;SDS011;38606;52.986;6.980;2023-03-01T00:06:19;26.55;;;15.85;;
52708;SDS011;38606;52.986;6.980;2023-03-01T00:08:45;30.15;;;17.73;;
52708;SDS011;38606;52.986;6.980;2023-03-01T00:13:43;28.63;;;17.23;;
52708;SDS011;38606;52.986;6.980;2023-03-01T00:16:11;28.33;;;16.63;;
52708;SDS011;38606;52.986;6.980;2023-03-01T00:18:42;32.30;;;16.50;;
52708;SDS011;38606;52.986;6.980;2023-03-01T00:21:08;25.77;;;15.70;;
52708;SDS011;38606;52.986;6.980;2023-03-01T00:23:34;25.20;;;15.05;;
52708;SDS011;38606;52.986;6.980;2023-03-01T00:26:00;25.90;;;16.95;;
52708;SDS011;38606;52.986;6.980;2023-03-01T00:28:26;28.85;;;17.30;;
52708;SDS011;38606;52.986;6.980;2023-03-01T00:30:52;27.92;;;16.48;;
52708;SDS011;38606;52.986;6.980;2023-03-01T00:33:17;29.77;;;17.90;;
52708;SDS011;38606;52.986;6.980;2023-03-01T00:35:44;26.38;;;16.00;;
52708;SDS011;38606;52.986;6.980;2023-03-01T00:38:10;28.10;;;15.90;;
52708;SDS011;38606;52.986;6.980;2023-03-01T00:40:36;26.83;;;16.42;;
52708;SDS011;38606;52.986;6.980;2023-03-01T00:43:02;30.80;;;17.70;;
52708;SDS011;38606;52.986;6.980;2023-03-01T00:45:29;29.27;;;16.05;;
52708;SDS011;38606;52.986;6.980;2023-03-01T00:47:56;26.70;;;16.58;;
52708;SDS011;38606;52.986;6.980;2023-03-01T00:50:23;27.30;;;15.95;;
52708;SDS011;38606;52.986;6.980;2023-03-01T00:52:52;30.58;;;17.02;;
52708;SDS011;38606;52.986;6.980;2023-03-01T00:55:21;25.80;;;15.63;;
52708;SDS011;38606;52.986;6.980;2023-03-01T00:57:47;26.55;;;15.52;;
52708;SDS011;38606;52.986;6.980;2023-03-01T01:00:13;28.30;;;16.40;;
52708;SDS011;38606;52.986;6.980;2023-03-01T01:02:40;29.77;;;16.55;;
52708;SDS011;38606;52.986;6.980;2023-03-01T01:05:06;24.50;;;15.25;;
52708;SDS011;38606;52.986;6.980;2023-03-01T01:07:32;29.45;;;16.58;;
52708;SDS011;38606;52.986;6.980;2023-03-01T01:09:58;29.38;;;16.92;;
52708;SDS011;38606;52.986;6.980;2023-03-01T01:12:23;28.40;;;16.17;;
52708;SDS011;38606;52.986;6.980;2023-03-01T01:14:49;33.45;;;17.45;;
52708;SDS011;38606;52.986;6.980;2023-03-01T01:17:15;26.92;;;16.17;;
52708;SDS011;38606;52.986;6.980;2023-03-01T01:19:41;32.80;;;16.33;;
52708;SDS011;38606;52.986;6.980;2023-03-01T01:22:06;26.73;;;16.25;;
52708;SDS011;38606;52.986;6.980;2023-03-01T01:24:32;25.63;;;16.02;;
52708;SDS011;38606;52.986;6.980;2023-03-01T01:26:58;31.95;;;17.95;;
52708;SDS011;38606;52.986;6.980;2023-03-01T01:29:23;27.55;;;15.70;;
52708;SDS011;38606;52.986;6.980;2023-03-01T01:31:49;29.88;;;16.88;;
52708;SDS011;38606;52.986;6.980;2023-03-01T01:34:16;27.23;;;15.98;;
52708;SDS011;38606;52.986;6.980;2023-03-01T01:36:50;27.75;;;15.10;;
52708;SDS011;38606;52.986;6.980;2023-03-01T01:39:19;28.00;;;15.93;;
52708;SDS011;38606;52.986;6.980;2023-03-01T01:41:45;26.27;;;15.57;;
52708;SDS011;38606;52.986;6.980;2023-03-01T01:46:38;28.08;;;16.23;;
52708;SDS011;38606;52.986;6.980;2023-03-01T01:51:45;24.60;;;14.68;;
52708;SDS011;38606;52.986;6.980;2023-03-01T01:54:16;27.83;;;15.70;;
52708;SDS011;38606;52.986;6.980;2023-03-01T01:56:50;27.65;;;15.95;;
52708;SDS011;38606;52.986;6.980;2023-03-01T01:59:22;28.10;;;15.48;;
52708;SDS011;38606;52.986;6.980;2023-03-01T02:01:54;26.67;;;16.08;;
52708;SDS011;38606;52.986;6.980;2023-03-01T02:04:20;27.23;;;15.43;;
52708;SDS011;38606;52.986;6.980;2023-03-01T02:06:51;26.17;;;15.50;;
52708;SDS011;38606;52.986;6.980;2023-03-01T02:09:24;24.38;;;15.13;;
52708;SDS011;38606;52.986;6.980;2023-03-01T02:11:51;28.00;;;16.58;;
52708;SDS011;38606;52.986;6.980;2023-03-01T02:14:18;25.48;;;14.88;;
52708;SDS011;38606;52.986;6.980;2023-03-01T02:16:44;25.25;;;14.88;;
52708;SDS011;38606;52.986;6.980;2023-03-01T02:19:12;22.52;;;14.10;;
52708;SDS011;38606;52.986;6.980;2023-03-01T02:24:26;29.27;;;15.50;;
52708;SDS011;38606;52.986;6.980;2023-03-01T02:26:54;25.13;;;14.95;;
52708;SDS011;38606;52.986;6.980;2023-03-01T02:29:22;23.88;;;14.18;;
52708;SDS011;38606;52.986;6.980;2023-03-01T02:31:49;26.08;;;15.27;;
52708;SDS011;38606;52.986;6.980;2023-03-01T02:34:20;26.00;;;14.95;;
52708;SDS011;38606;52.986;6.980;2023-03-01T02:36:48;25.52;;;14.88;;
52708;SDS011;38606;52.986;6.980;2023-03-01T02:39:18;26.52;;;14.48;;
52708;SDS011;38606;52.986;6.980;2023-03-01T02:41:52;23.00;;;13.57;;
52708;SDS011;38606;52.986;6.980;2023-03-01T02:44:19;27.02;;;15.57;;
52708;SDS011;38606;52.986;6.980;2023-03-01T02:46:53;26.88;;;15.00;;
52708;SDS011;38606;52.986;6.980;2023-03-01T02:54:52;25.35;;;14.43;;
52708;SDS011;38606;52.986;6.980;2023-03-01T02:57:31;24.48;;;13.88;;
52708;SDS011;38606;52.986;6.980;2023-03-01T03:00:02;26.92;;;14.68;;
52708;SDS011;38606;52.986;6.980;2023-03-01T03:02:44;23.65;;;14.02;;
52708;SDS011;38606;52.986;6.980;2023-03-01T03:05:13;28.00;;;14.45;;
52708;SDS011;38606;52.986;6.980;2023-03-01T03:07:41;23.52;;;14.07;;
52708;SDS011;38606;52.986;6.980;2023-03-01T03:10:11;24.33;;;14.80;;
52708;SDS011;38606;52.986;6.980;2023-03-01T03:12:39;22.42;;;13.90;;
52708;SDS011;38606;52.986;6.980;2023-03-01T03:15:06;24.70;;;14.48;;
52708;SDS011;38606;52.986;6.980;2023-03-01T03:17:37;24.13;;;14.13;;
52708;SDS011;38606;52.986;6.980;2023-03-01T03:20:04;26.05;;;14.38;;
52708;SDS011;38606;52.986;6.980;2023-03-01T03:22:36;25.10;;;14.52;;
52708;SDS011;38606;52.986;6.980;2023-03-01T03:25:05;28.58;;;14.88;;
52708;SDS011;38606;52.986;6.980;2023-03-01T03:27:35;25.05;;;13.85;;
52708;SDS011;38606;52.986;6.980;2023-03-01T03:30:03;26.17;;;14.63;;
52708;SDS011;38606;52.986;6.980;2023-03-01T03:32:34;20.45;;;12.02;;
52708;SDS011;38606;52.986;6.980;2023-03-01T03:35:02;27.10;;;14.65;;
52708;SDS011;38606;52.986;6.980;2023-03-01T03:37:35;20.00;;;11.40;;
52708;SDS011;38606;52.986;6.980;2023-03-01T03:40:21;24.00;;;13.77;;
52708;SDS011;38606;52.986;6.980;2023-03-01T03:42:47;24.45;;;14.25;;
52708;SDS011;38606;52.986;6.980;2023-03-01T03:45:13;26.42;;;14.25;;
52708;SDS011;38606;52.986;6.980;2023-03-01T03:47:39;24.58;;;14.75;;
52708;SDS011;38606;52.986;6.980;2023-03-01T03:50:06;25.55;;;15.07;;
52708;SDS011;38606;52.986;6.980;2023-03-01T03:52:32;29.25;;;16.45;;
52708;SDS011;38606;52.986;6.980;2023-03-01T03:54:58;23.70;;;13.10;;
52708;SDS011;38606;52.986;6.980;2023-03-01T03:57:24;26.63;;;15.68;;
52708;SDS011;38606;52.986;6.980;2023-03-01T03:59:49;27.35;;;15.48;;
52708;SDS011;38606;52.986;6.980;2023-03-01T04:02:15;27.88;;;14.73;;
52708;SDS011;38606;52.986;6.980;2023-03-01T04:04:47;25.13;;;14.88;;
52708;SDS011;38606;52.986;6.980;2023-03-01T04:07:16;28.70;;;14.82;;
52708;SDS011;38606;52.986;6.980;2023-03-01T04:09:42;26.35;;;15.57;;
52708;SDS011;38606;52.986;6.980;2023-03-01T04:12:09;25.25;;;15.10;;
52708;SDS011;38606;52.986;6.980;2023-03-01T04:14:35;28.50;;;15.55;;
52708;SDS011;38606;52.986;6.980;2023-03-01T04:17:01;26.38;;;15.07;;
52708;SDS011;38606;52.986;6.980;2023-03-01T04:19:30;28.50;;;14.48;;
52708;SDS011;38606;52.986;6.980;2023-03-01T04:22:01;32.63;;;15.45;;
52708;SDS011;38606;52.986;6.980;2023-03-01T04:24:32;23.88;;;13.38;;
52708;SDS011;38606;52.986;6.980;2023-03-01T04:26:58;25.98;;;13.68;;
52708;SDS011;38606;52.986;6.980;2023-03-01T04:29:24;25.58;;;13.95;;
52708;SDS011;38606;52.986;6.980;2023-03-01T04:31:50;28.95;;;15.27;;
52708;SDS011;38606;52.986;6.980;2023-03-01T04:34:15;25.60;;;15.00;;
52708;SDS011;38606;52.986;6.980;2023-03-01T04:36:41;24.25;;;14.57;;
52708;SDS011;38606;52.986;6.980;2023-03-01T04:39:07;25.73;;;14.55;;
52708;SDS011;38606;52.986;6.980;2023-03-01T04:41:37;29.17;;;14.95;;
52708;SDS011;38606;52.986;6.980;2023-03-01T04:44:04;25.38;;;14.68;;
52708;SDS011;38606;52.986;6.980;2023-03-01T04:46:30;26.63;;;14.20;;
52708;SDS011;38606;52.986;6.980;2023-03-01T04:48:56;26.27;;;14.93;;
52708;SDS011;38606;52.986;6.980;2023-03-01T04:51:22;31.58;;;15.48;;
52708;SDS011;38606;52.986;6.980;2023-03-01T04:53:48;28.95;;;15.40;;
52708;SDS011;38606;52.986;6.980;2023-03-01T04:56:14;29.48;;;14.93;;
52708;SDS011;38606;52.986;6.980;2023-03-01T04:58:42;27.13;;;14.30;;
52708;SDS011;38606;52.986;6.980;2023-03-01T05:01:10;26.80;;;15.10;;
52708;SDS011;38606;52.986;6.980;2023-03-01T05:03:43;24.00;;;14.20;;
52708;SDS011;38606;52.986;6.980;2023-03-01T05:06:10;26.20;;;13.60;;
52708;SDS011;38606;52.986;6.980;2023-03-01T05:08:37;30.77;;;14.65;;
52708;SDS011;38606;52.986;6.980;2023-03-01T05:11:04;25.35;;;14.43;;
52708;SDS011;38606;52.986;6.980;2023-03-01T05:13:30;20.60;;;12.38;;
52708;SDS011;38606;52.986;6.980;2023-03-01T05:15:58;26.30;;;14.85;;
52708;SDS011;38606;52.986;6.980;2023-03-01T05:18:26;26.05;;;14.23;;
52708;SDS011;38606;52.986;6.980;2023-03-01T05:20:53;26.33;;;13.82;;
52708;SDS011;38606;52.986;6.980;2023-03-01T05:23:21;24.92;;;13.32;;
52708;SDS011;38606;52.986;6.980;2023-03-01T05:25:48;25.17;;;14.30;;
52708;SDS011;38606;52.986;6.980;2023-03-01T05:28:17;28.20;;;15.18;;
52708;SDS011;38606;52.986;6.980;2023-03-01T05:30:44;24.88;;;14.52;;
52708;SDS011;38606;52.986;6.980;2023-03-01T05:33:10;28.90;;;14.70;;
52708;SDS011;38606;52.986;6.980;2023-03-01T05:35:42;26.95;;;15.45;;
52708;SDS011;38606;52.986;6.980;2023-03-01T05:38:12;24.58;;;13.48;;
52708;SDS011;38606;52.986;6.980;2023-03-01T05:40:39;24.98;;;13.93;;
52708;SDS011;38606;52.986;6.980;2023-03-01T05:43:05;24.85;;;13.95;;
52708;SDS011;38606;52.986;6.980;2023-03-01T05:45:32;24.23;;;13.80;;
52708;SDS011;38606;52.986;6.980;2023-03-01T05:47:57;27.48;;;15.10;;
52708;SDS011;38606;52.986;6.980;2023-03-01T05:50:25;29.70;;;15.68;;
52708;SDS011;38606;52.986;6.980;2023-03-01T05:52:54;27.58;;;15.38;;
52708;SDS011;38606;52.986;6.980;2023-03-01T05:55:24;26.70;;;14.50;;
52708;SDS011;38606;52.986;6.980;2023-03-01T05:57:50;26.98;;;15.55;;
52708;SDS011;38606;52.986;6.980;2023-03-01T06:00:17;30.60;;;15.50;;
52708;SDS011;38606;52.986;6.980;2023-03-01T06:02:44;27.85;;;15.02;;
52708;SDS011;38606;52.986;6.980;2023-03-01T06:05:11;27.50;;;14.55;;
52708;SDS011;38606;52.986;6.980;2023-03-01T06:07:38;24.40;;;14.38;;
52708;SDS011;38606;52.986;6.980;2023-03-01T06:10:04;28.92;;;14.52;;
52708;SDS011;38606;52.986;6.980;2023-03-01T06:12:31;27.65;;;15.23;;
52708;SDS011;38606;52.986;6.980;2023-03-01T06:15:01;26.60;;;14.05;;
52708;SDS011;38606;52.986;6.980;2023-03-01T06:17:31;28.73;;;14.55;;
52708;SDS011;38606;52.986;6.980;2023-03-01T06:20:02;24.92;;;13.60;;
52708;SDS011;38606;52.986;6.980;2023-03-01T06:22:28;26.08;;;14.13;;
52708;SDS011;38606;52.986;6.980;2023-03-01T06:24:54;29.77;;;14.68;;
52708;SDS011;38606;52.986;6.980;2023-03-01T06:27:20;27.15;;;14.80;;
52708;SDS011;38606;52.986;6.980;2023-03-01T06:29:46;25.40;;;14.10;;
52708;SDS011;38606;52.986;6.980;2023-03-01T06:32:12;24.58;;;13.55;;
52708;SDS011;38606;52.986;6.980;2023-03-01T06:34:38;26.73;;;13.95;;
52708;SDS011;38606;52.986;6.980;2023-03-01T06:37:04;26.88;;;14.80;;
52708;SDS011;38606;52.986;6.980;2023-03-01T06:39:31;26.98;;;14.32;;
52708;SDS011;38606;52.986;6.980;2023-03-01T06:41:57;27.25;;;15.50;;
52708;SDS011;38606;52.986;6.980;2023-03-01T06:44:26;24.85;;;14.23;;
52708;SDS011;38606;52.986;6.980;2023-03-01T06:46:52;30.08;;;15.02;;
52708;SDS011;38606;52.986;6.980;2023-03-01T06:49:17;25.00;;;14.07;;
52708;SDS011;38606;52.986;6.980;2023-03-01T06:51:44;30.80;;;14.80;;
52708;SDS011;38606;52.986;6.980;2023-03-01T06:54:11;26.50;;;15.05;;
52708;SDS011;38606;52.986;6.980;2023-03-01T06:56:37;26.52;;;14.63;;
52708;SDS011;38606;52.986;6.980;2023-03-01T06:59:03;29.27;;;14.63;;
52708;SDS011;38606;52.986;6.980;2023-03-01T07:01:29;28.65;;;15.32;;
52708;SDS011;38606;52.986;6.980;2023-03-01T07:03:56;26.08;;;15.20;;
52708;SDS011;38606;52.986;6.980;2023-03-01T07:06:22;35.05;;;16.58;;
52708;SDS011;38606;52.986;6.980;2023-03-01T07:08:48;32.30;;;15.95;;
52708;SDS011;38606;52.986;6.980;2023-03-01T07:11:14;34.03;;;17.30;;
52708;SDS011;38606;52.986;6.980;2023-03-01T07:13:40;36.50;;;18.75;;
52708;SDS011;38606;52.986;6.980;2023-03-01T07:16:06;42.15;;;19.45;;
52708;SDS011;38606;52.986;6.980;2023-03-01T07:18:32;39.97;;;19.60;;
52708;SDS011;38606;52.986;6.980;2023-03-01T07:21:03;40.20;;;20.15;;
52708;SDS011;38606;52.986;6.980;2023-03-01T07:23:29;52.00;;;21.55;;
52708;SDS011;38606;52.986;6.980;2023-03-01T07:25:55;46.15;;;21.70;;
52708;SDS011;38606;52.986;6.980;2023-03-01T07:28:24;59.05;;;27.52;;
52708;SDS011;38606;52.986;6.980;2023-03-01T07:30:50;63.08;;;28.67;;
52708;SDS011;38606;52.986;6.980;2023-03-01T07:33:16;70.88;;;28.92;;
52708;SDS011;38606;52.986;6.980;2023-03-01T07:35:42;70.60;;;28.70;;
52708;SDS011;38606;52.986;6.980;2023-03-01T07:38:08;91.15;;;32.33;;
52708;SDS011;38606;52.986;6.980;2023-03-01T07:40:35;105.30;;;34.05;;
52708;SDS011;38606;52.986;6.980;2023-03-01T07:43:00;106.80;;;34.70;;
52708;SDS011;38606;52.986;6.980;2023-03-01T07:45:27;89.18;;;35.50;;
52708;SDS011;38606;52.986;6.980;2023-03-01T07:47:53;83.85;;;32.75;;
52708;SDS011;38606;52.986;6.980;2023-03-01T07:50:20;82.47;;;31.98;;
52708;SDS011;38606;52.986;6.980;2023-03-01T07:52:47;81.32;;;30.95;;
52708;SDS011;38606;52.986;6.980;2023-03-01T07:55:13;87.60;;;32.25;;
52708;SDS011;38606;52.986;6.980;2023-03-01T07:57:39;107.05;;;34.90;;
52708;SDS011;38606;52.986;6.980;2023-03-01T08:00:05;77.15;;;31.40;;
52708;SDS011;38606;52.986;6.980;2023-03-01T08:02:31;80.45;;;33.28;;
52708;SDS011;38606;52.986;6.980;2023-03-01T08:04:57;109.05;;;33.97;;
52708;SDS011;38606;52.986;6.980;2023-03-01T08:07:23;87.78;;;33.83;;
52708;SDS011;38606;52.986;6.980;2023-03-01T08:09:48;74.97;;;34.70;;
52708;SDS011;38606;52.986;6.980;2023-03-01T08:12:14;91.40;;;35.92;;
52708;SDS011;38606;52.986;6.980;2023-03-01T08:14:42;138.50;;;37.35;;
52708;SDS011;38606;52.986;6.980;2023-03-01T08:17:07;97.20;;;37.85;;
52708;SDS011;38606;52.986;6.980;2023-03-01T08:19:33;77.90;;;37.63;;
52708;SDS011;38606;52.986;6.980;2023-03-01T08:22:00;87.70;;;39.97;;
52708;SDS011;38606;52.986;6.980;2023-03-01T08:24:27;88.55;;;40.00;;
52708;SDS011;38606;52.986;6.980;2023-03-01T08:26:53;84.35;;;39.20;;
52708;SDS011;38606;52.986;6.980;2023-03-01T08:29:19;77.28;;;38.20;;
52708;SDS011;38606;52.986;6.980;2023-03-01T08:31:45;78.07;;;39.15;;
52708;SDS011;38606;52.986;6.980;2023-03-01T08:34:12;85.15;;;40.22;;
52708;SDS011;38606;52.986;6.980;2023-03-01T08:36:41;90.25;;;41.53;;
52708;SDS011;38606;52.986;6.980;2023-03-01T08:39:09;79.90;;;40.50;;
52708;SDS011;38606;52.986;6.980;2023-03-01T08:41:36;84.70;;;42.13;;
52708;SDS011;38606;52.986;6.980;2023-03-01T08:44:03;82.35;;;42.10;;
52708;SDS011;38606;52.986;6.980;2023-03-01T08:46:30;85.63;;;42.58;;
52708;SDS011;38606;52.986;6.980;2023-03-01T08:48:58;88.07;;;42.88;;
52708;SDS011;38606;52.986;6.980;2023-03-01T08:51:24;84.53;;;41.33;;
52708;SDS011;38606;52.986;6.980;2023-03-01T08:53:51;80.22;;;40.80;;
52708;SDS011;38606;52.986;6.980;2023-03-01T08:56:17;75.40;;;39.70;;
52708;SDS011;38606;52.986;6.980;2023-03-01T08:58:45;74.50;;;39.40;;
52708;SDS011;38606;52.986;6.980;2023-03-01T09:01:13;70.93;;;37.20;;
52708;SDS011;38606;52.986;6.980;2023-03-01T09:03:40;57.38;;;34.00;;
52708;SDS011;38606;52.986;6.980;2023-03-01T09:06:07;55.80;;;30.88;;
52708;SDS011;38606;52.986;6.980;2023-03-01T09:08:36;52.88;;;30.05;;
52708;SDS011;38606;52.986;6.980;2023-03-01T09:11:04;47.35;;;28.77;;
52708;SDS011;38606;52.986;6.980;2023-03-01T09:13:30;47.88;;;27.95;;
52708;SDS011;38606;52.986;6.980;2023-03-01T09:15:56;46.83;;;28.60;;
52708;SDS011;38606;52.986;6.980;2023-03-01T09:18:26;43.15;;;26.52;;
52708;SDS011;38606;52.986;6.980;2023-03-01T09:20:52;44.47;;;26.92;;
52708;SDS011;38606;52.986;6.980;2023-03-01T09:23:20;41.90;;;26.52;;
52708;SDS011;38606;52.986;6.980;2023-03-01T09:25:46;44.35;;;25.42;;
52708;SDS011;38606;52.986;6.980;2023-03-01T09:28:12;42.00;;;25.80;;
52708;SDS011;38606;52.986;6.980;2023-03-01T09:30:37;44.38;;;27.00;;
52708;SDS011;38606;52.986;6.980;2023-03-01T09:33:03;44.65;;;27.13;;
52708;SDS011;38606;52.986;6.980;2023-03-01T09:35:29;45.42;;;27.45;;
52708;SDS011;38606;52.986;6.980;2023-03-01T09:37:55;42.00;;;25.27;;
52708;SDS011;38606;52.986;6.980;2023-03-01T09:40:21;42.70;;;25.45;;
52708;SDS011;38606;52.986;6.980;2023-03-01T09:45:29;41.60;;;25.50;;
52708;SDS011;38606;52.986;6.980;2023-03-01T09:47:59;41.75;;;25.40;;
52708;SDS011;38606;52.986;6.980;2023-03-01T09:50:28;37.00;;;24.55;;
52708;SDS011;38606;52.986;6.980;2023-03-01T09:55:37;38.13;;;23.98;;
52708;SDS011;38606;52.986;6.980;2023-03-01T10:00:56;39.03;;;23.75;;
52708;SDS011;38606;52.986;6.980;2023-03-01T10:03:28;39.47;;;23.98;;
52708;SDS011;38606;52.986;6.980;2023-03-01T10:06:14;38.15;;;23.98;;
52708;SDS011;38606;52.986;6.980;2023-03-01T10:08:50;38.00;;;23.60;;
52708;SDS011;38606;52.986;6.980;2023-03-01T10:11:26;39.72;;;24.77;;
52708;SDS011;38606;52.986;6.980;2023-03-01T10:16:57;37.85;;;23.15;;
52708;SDS011;38606;52.986;6.980;2023-03-01T10:19:41;36.72;;;23.33;;
52708;SDS011;38606;52.986;6.980;2023-03-01T10:22:13;37.70;;;23.55;;
52708;SDS011;38606;52.986;6.980;2023-03-01T10:24:43;40.42;;;24.48;;
52708;SDS011;38606;52.986;6.980;2023-03-01T10:32:45;39.63;;;25.17;;
52708;SDS011;38606;52.986;6.980;2023-03-01T10:35:27;43.97;;;23.40;;
52708;SDS011;38606;52.986;6.980;2023-03-01T10:40:23;36.00;;;22.63;;
52708;SDS011;38606;52.986;6.980;2023-03-01T10:42:49;34.85;;;21.50;;
52708;SDS011;38606;52.986;6.980;2023-03-01T10:45:17;33.78;;;21.70;;
52708;SDS011;38606;52.986;6.980;2023-03-01T10:48:05;34.10;;;20.63;;
52708;SDS011;38606;52.986;6.980;2023-03-01T10:50:45;26.13;;;16.17;;
52708;SDS011;38606;52.986;6.980;2023-03-01T10:53:27;26.00;;;16.08;;
52708;SDS011;38606;52.986;6.980;2023-03-01T10:56:11;28.90;;;18.20;;
52708;SDS011;38606;52.986;6.980;2023-03-01T10:58:39;29.02;;;15.57;;
52708;SDS011;38606;52.986;6.980;2023-03-01T11:06:30;20.05;;;11.40;;
52708;SDS011;38606;52.986;6.980;2023-03-01T11:08:57;18.77;;;11.50;;
52708;SDS011;38606;52.986;6.980;2023-03-01T11:11:43;19.60;;;10.63;;
52708;SDS011;38606;52.986;6.980;2023-03-01T11:14:17;17.73;;;11.27;;
52708;SDS011;38606;52.986;6.980;2023-03-01T11:16:46;18.08;;;10.95;;
52708;SDS011;38606;52.986;6.980;2023-03-01T11:21:51;16.25;;;9.93;;
52708;SDS011;38606;52.986;6.980;2023-03-01T11:24:46;15.00;;;9.20;;
52708;SDS011;38606;52.986;6.980;2023-03-01T11:29:59;20.25;;;10.52;;
52708;SDS011;38606;52.986;6.980;2023-03-01T11:32:42;18.00;;;10.90;;
52708;SDS011;38606;52.986;6.980;2023-03-01T11:35:15;21.33;;;13.07;;
52708;SDS011;38606;52.986;6.980;2023-03-01T11:38:06;22.45;;;13.82;;
52708;SDS011;38606;52.986;6.980;2023-03-01T11:40:45;25.85;;;15.43;;
52708;SDS011;38606;52.986;6.980;2023-03-01T11:51:44;20.35;;;13.93;;
52708;SDS011;38606;52.986;6.980;2023-03-01T11:54:27;20.20;;;12.68;;
52708;SDS011;38606;52.986;6.980;2023-03-01T12:05:51;18.17;;;11.52;;
52708;SDS011;38606;52.986;6.980;2023-03-01T12:09:06;19.33;;;12.45;;
52708;SDS011;38606;52.986;6.980;2023-03-01T12:16:33;16.63;;;10.85;;
52708;SDS011;38606;52.986;6.980;2023-03-01T12:19:33;19.17;;;11.85;;
52708;SDS011;38606;52.986;6.980;2023-03-01T12:30:42;19.58;;;11.10;;
52708;SDS011;38606;52.986;6.980;2023-03-01T12:33:18;19.60;;;12.07;;
52708;SDS011;38606;52.986;6.980;2023-03-01T12:50:04;14.93;;;9.18;;
52708;SDS011;38606;52.986;6.980;2023-03-01T12:52:46;14.63;;;9.20;;
52708;SDS011;38606;52.986;6.980;2023-03-01T12:55:34;12.75;;;9.25;;
52708;SDS011;38606;52.986;6.980;2023-03-01T13:06:03;15.70;;;10.30;;
52708;SDS011;38606;52.986;6.980;2023-03-01T13:08:36;14.63;;;10.45;;
52708;SDS011;38606;52.986;6.980;2023-03-01T13:11:15;16.08;;;10.55;;
52708;SDS011;38606;52.986;6.980;2023-03-01T13:13:43;18.27;;;10.18;;
52708;SDS011;38606;52.986;6.980;2023-03-01T13:19:13;14.32;;;10.13;;
52708;SDS011;38606;52.986;6.980;2023-03-01T13:21:44;13.10;;;9.18;;
52708;SDS011;38606;52.986;6.980;2023-03-01T13:29:48;14.98;;;10.15;;
52708;SDS011;38606;52.986;6.980;2023-03-01T13:32:31;15.98;;;9.98;;
52708;SDS011;38606;52.986;6.980;2023-03-01T13:37:36;14.38;;;9.13;;
52708;SDS011;38606;52.986;6.980;2023-03-01T13:42:44;12.75;;;8.60;;
52708;SDS011;38606;52.986;6.980;2023-03-01T13:50:54;14.23;;;9.52;;
52708;SDS011;38606;52.986;6.980;2023-03-01T13:53:25;17.23;;;9.95;;
52708;SDS011;38606;52.986;6.980;2023-03-01T13:56:00;19.75;;;9.98;;
52708;SDS011;38606;52.986;6.980;2023-03-01T13:58:32;16.17;;;9.93;;
52708;SDS011;38606;52.986;6.980;2023-03-01T14:01:18;16.65;;;10.35;;
52708;SDS011;38606;52.986;6.980;2023-03-01T14:03:59;15.50;;;10.95;;
52708;SDS011;38606;52.986;6.980;2023-03-01T14:06:28;16.13;;;11.07;;
52708;SDS011;38606;52.986;6.980;2023-03-01T14:14:10;16.60;;;10.30;;
52708;SDS011;38606;52.986;6.980;2023-03-01T14:19:35;14.48;;;10.05;;
52708;SDS011;38606;52.986;6.980;2023-03-01T14:22:07;14.50;;;10.07;;
52708;SDS011;38606;52.986;6.980;2023-03-01T14:24:44;17.58;;;10.63;;
52708;SDS011;38606;52.986;6.980;2023-03-01T14:27:14;15.85;;;10.70;;
52708;SDS011;38606;52.986;6.980;2023-03-01T14:29:40;16.73;;;9.82;;
52708;SDS011;38606;52.986;6.980;2023-03-01T14:32:11;13.90;;;9.73;;
52708;SDS011;38606;52.986;6.980;2023-03-01T14:34:48;15.25;;;10.38;;
52708;SDS011;38606;52.986;6.980;2023-03-01T14:37:20;14.77;;;10.38;;
52708;SDS011;38606;52.986;6.980;2023-03-01T14:39:46;16.70;;;10.38;;
52708;SDS011;38606;52.986;6.980;2023-03-01T14:42:12;15.00;;;10.52;;
52708;SDS011;38606;52.986;6.980;2023-03-01T14:44:42;15.57;;;10.60;;
52708;SDS011;38606;52.986;6.980;2023-03-01T14:47:11;14.77;;;10.00;;
52708;SDS011;38606;52.986;6.980;2023-03-01T14:49:44;18.10;;;11.00;;
52708;SDS011;38606;52.986;6.980;2023-03-01T14:52:17;17.35;;;11.65;;
52708;SDS011;38606;52.986;6.980;2023-03-01T14:54:47;15.40;;;10.75;;
52708;SDS011;38606;52.986;6.980;2023-03-01T14:57:16;16.35;;;9.88;;
52708;SDS011;38606;52.986;6.980;2023-03-01T14:59:49;15.75;;;10.77;;
52708;SDS011;38606;52.986;6.980;2023-03-01T15:02:20;15.23;;;10.25;;
52708;SDS011;38606;52.986;6.980;2023-03-01T15:04:52;16.48;;;10.82;;
52708;SDS011;38606;52.986;6.980;2023-03-01T15:07:26;16.08;;;11.57;;
52708;SDS011;38606;52.986;6.980;2023-03-01T15:09:56;19.38;;;11.90;;
52708;SDS011;38606;52.986;6.980;2023-03-01T15:15:18;16.20;;;11.38;;
52708;SDS011;38606;52.986;6.980;2023-03-01T15:17:55;20.40;;;12.95;;
52708;SDS011;38606;52.986;6.980;2023-03-01T15:20:24;17.80;;;11.95;;
52708;SDS011;38606;52.986;6.980;2023-03-01T15:22:55;20.17;;;13.02;;
52708;SDS011;38606;52.986;6.980;2023-03-01T15:25:26;18.08;;;11.75;;
52708;SDS011;38606;52.986;6.980;2023-03-01T15:27:53;20.77;;;12.63;;
52708;SDS011;38606;52.986;6.980;2023-03-01T15:30:33;21.23;;;12.43;;
52708;SDS011;38606;52.986;6.980;2023-03-01T15:33:27;17.13;;;12.20;;
52708;SDS011;38606;52.986;6.980;2023-03-01T15:35:56;20.33;;;12.90;;
52708;SDS011;38606;52.986;6.980;2023-03-01T15:38:28;19.15;;;12.73;;
52708;SDS011;38606;52.986;6.980;2023-03-01T15:41:04;25.25;;;12.90;;
52708;SDS011;38606;52.986;6.980;2023-03-01T15:43:46;20.38;;;13.27;;
52708;SDS011;38606;52.986;6.980;2023-03-01T15:46:19;18.63;;;12.48;;
52708;SDS011;38606;52.986;6.980;2023-03-01T15:48:47;18.50;;;12.52;;
52708;SDS011;38606;52.986;6.980;2023-03-01T15:51:17;18.83;;;12.68;;
52708;SDS011;38606;52.986;6.980;2023-03-01T15:53:48;18.45;;;12.40;;
52708;SDS011;38606;52.986;6.980;2023-03-01T15:56:16;20.23;;;13.15;;
52708;SDS011;38606;52.986;6.980;2023-03-01T15:58:42;18.70;;;13.10;;
52708;SDS011;38606;52.986;6.980;2023-03-01T16:01:12;18.65;;;12.27;;
52708;SDS011;38606;52.986;6.980;2023-03-01T16:03:40;20.20;;;14.03;;
52708;SDS011;38606;52.986;6.980;2023-03-01T16:06:08;20.08;;;13.40;;
52708;SDS011;38606;52.986;6.980;2023-03-01T16:08:35;22.40;;;14.07;;
52708;SDS011;38606;52.986;6.980;2023-03-01T16:11:02;21.55;;;14.30;;
52708;SDS011;38606;52.986;6.980;2023-03-01T16:13:30;23.45;;;14.98;;
52708;SDS011;38606;52.986;6.980;2023-03-01T16:15:56;24.17;;;15.00;;
52708;SDS011;38606;52.986;6.980;2023-03-01T16:18:22;20.15;;;13.82;;
52708;SDS011;38606;52.986;6.980;2023-03-01T16:20:48;22.45;;;13.95;;
52708;SDS011;38606;52.986;6.980;2023-03-01T16:23:14;21.15;;;13.88;;
52708;SDS011;38606;52.986;6.980;2023-03-01T16:25:40;22.45;;;14.77;;
52708;SDS011;38606;52.986;6.980;2023-03-01T16:28:06;24.65;;;15.48;;
52708;SDS011;38606;52.986;6.980;2023-03-01T16:30:35;23.30;;;14.98;;
52708;SDS011;38606;52.986;6.980;2023-03-01T16:33:04;26.25;;;15.75;;
52708;SDS011;38606;52.986;6.980;2023-03-01T16:35:33;27.75;;;16.20;;
52708;SDS011;38606;52.986;6.980;2023-03-01T16:38:03;23.48;;;15.40;;
52708;SDS011;38606;52.986;6.980;2023-03-01T16:40:29;27.90;;;17.17;;
52708;SDS011;38606;52.986;6.980;2023-03-01T16:42:55;24.67;;;15.60;;